sensor_id;sensor_type;location;lat;lon;timestamp;P1;durP1;ratioP1;P2;durP2;ratioP2
42186;SDS011;27858;51.414;0.018;2023-02-05T00:00:17;5.75;;;3.08;;
42186;SDS011;27858;51.414;0.018;2023-02-05T00:02:45;11.30;;;2.90;;
42186;SDS011;27858;51.414;0.018;2023-02-05T00:05:12;10.95;;;2.67;;
42186;SDS011;27858;51.414;0.018;2023-02-05T00:07:39;7.35;;;3.35;;
42186;SDS011;27858;51.414;0.018;2023-02-05T00:10:05;6.97;;;3.45;;
42186;SDS011;27858;51.414;0.018;2023-02-05T00:12:33;6.43;;;2.38;;
42186;SDS011;27858;51.414;0.018;2023-02-05T00:14:59;7.95;;;2.20;;
42186;SDS011;27858;51.414;0.018;2023-02-05T00:17:26;7.25;;;3.03;;
42186;SDS011;27858;51.414;0.018;2023-02-05T00:19:53;6.07;;;2.58;;
42186;SDS011;27858;51.414;0.018;2023-02-05T00:22:20;8.55;;;3.75;;
42186;SDS011;27858;51.414;0.018;2023-02-05T00:24:47;7.25;;;3.25;;
42186;SDS011;27858;51.414;0.018;2023-02-05T00:27:14;5.18;;;2.92;;
42186;SDS011;27858;51.414;0.018;2023-02-05T00:29:41;13.88;;;3.65;;
42186;SDS011;27858;51.414;0.018;2023-02-05T00:32:07;4.47;;;2.50;;
42186;SDS011;27858;51.414;0.018;2023-02-05T00:34:34;6.80;;;3.17;;
42186;SDS011;27858;51.414;0.018;2023-02-05T00:37:01;12.38;;;3.60;;
42186;SDS011;27858;51.414;0.018;2023-02-05T00:39:28;9.02;;;3.92;;
42186;SDS011;27858;51.414;0.018;2023-02-05T00:41:55;7.00;;;3.15;;
42186;SDS011;27858;51.414;0.018;2023-02-05T00:44:22;6.45;;;2.78;;
42186;SDS011;27858;51.414;0.018;2023-02-05T00:46:48;7.13;;;2.53;;
42186;SDS011;27858;51.414;0.018;2023-02-05T00:49:15;6.20;;;2.30;;
42186;SDS011;27858;51.414;0.018;2023-02-05T00:51:42;10.95;;;3.08;;
42186;SDS011;27858;51.414;0.018;2023-02-05T00:54:09;9.18;;;3.80;;
42186;SDS011;27858;51.414;0.018;2023-02-05T00:56:36;8.73;;;3.33;;
42186;SDS011;27858;51.414;0.018;2023-02-05T00:59:03;5.72;;;2.95;;
42186;SDS011;27858;51.414;0.018;2023-02-05T01:01:30;3.97;;;2.42;;
42186;SDS011;27858;51.414;0.018;2023-02-05T01:03:56;7.22;;;2.80;;
42186;SDS011;27858;51.414;0.018;2023-02-05T01:06:23;17.00;;;3.33;;
42186;SDS011;27858;51.414;0.018;2023-02-05T01:08:50;11.63;;;3.28;;
42186;SDS011;27858;51.414;0.018;2023-02-05T01:11:17;4.45;;;2.45;;
42186;SDS011;27858;51.414;0.018;2023-02-05T01:13:45;12.43;;;3.08;;
42186;SDS011;27858;51.414;0.018;2023-02-05T01:16:11;7.05;;;2.95;;
42186;SDS011;27858;51.414;0.018;2023-02-05T01:18:38;6.45;;;3.17;;
42186;SDS011;27858;51.414;0.018;2023-02-05T01:21:05;9.38;;;2.80;;
42186;SDS011;27858;51.414;0.018;2023-02-05T01:23:32;4.85;;;2.88;;
42186;SDS011;27858;51.414;0.018;2023-02-05T01:25:59;6.70;;;2.72;;
42186;SDS011;27858;51.414;0.018;2023-02-05T01:28:25;9.88;;;3.53;;
42186;SDS011;27858;51.414;0.018;2023-02-05T01:30:52;6.07;;;3.25;;
42186;SDS011;27858;51.414;0.018;2023-02-05T01:33:19;13.75;;;3.42;;
42186;SDS011;27858;51.414;0.018;2023-02-05T01:35:45;5.82;;;3.17;;
42186;SDS011;27858;51.414;0.018;2023-02-05T01:38:13;7.30;;;2.50;;
42186;SDS011;27858;51.414;0.018;2023-02-05T01:40:39;10.07;;;3.28;;
42186;SDS011;27858;51.414;0.018;2023-02-05T01:43:14;5.15;;;2.65;;
42186;SDS011;27858;51.414;0.018;2023-02-05T01:48:45;7.97;;;3.23;;
42186;SDS011;27858;51.414;0.018;2023-02-05T01:51:15;6.97;;;2.60;;
42186;SDS011;27858;51.414;0.018;2023-02-05T01:53:43;9.85;;;2.63;;
42186;SDS011;27858;51.414;0.018;2023-02-05T01:56:19;4.80;;;1.95;;
42186;SDS011;27858;51.414;0.018;2023-02-05T01:58:55;10.43;;;2.90;;
42186;SDS011;27858;51.414;0.018;2023-02-05T02:01:29;7.88;;;2.90;;
42186;SDS011;27858;51.414;0.018;2023-02-05T02:03:58;6.18;;;2.67;;
42186;SDS011;27858;51.414;0.018;2023-02-05T02:06:30;9.65;;;3.22;;
42186;SDS011;27858;51.414;0.018;2023-02-05T02:08:58;7.63;;;3.70;;
42186;SDS011;27858;51.414;0.018;2023-02-05T02:11:27;5.20;;;2.85;;
42186;SDS011;27858;51.414;0.018;2023-02-05T02:13:55;10.32;;;3.60;;
42186;SDS011;27858;51.414;0.018;2023-02-05T02:16:26;7.18;;;2.67;;
42186;SDS011;27858;51.414;0.018;2023-02-05T02:18:55;6.40;;;2.15;;
42186;SDS011;27858;51.414;0.018;2023-02-05T02:24:41;6.80;;;2.15;;
42186;SDS011;27858;51.414;0.018;2023-02-05T02:35:56;7.18;;;2.50;;
42186;SDS011;27858;51.414;0.018;2023-02-05T02:38:36;3.60;;;1.90;;
42186;SDS011;27858;51.414;0.018;2023-02-05T02:44:22;4.72;;;2.20;;
42186;SDS011;27858;51.414;0.018;2023-02-05T02:47:11;5.05;;;2.70;;
42186;SDS011;27858;51.414;0.018;2023-02-05T02:50:03;4.75;;;2.05;;
42186;SDS011;27858;51.414;0.018;2023-02-05T02:52:36;4.90;;;2.00;;
42186;SDS011;27858;51.414;0.018;2023-02-05T02:55:06;4.22;;;1.98;;
42186;SDS011;27858;51.414;0.018;2023-02-05T02:57:37;7.45;;;3.28;;
42186;SDS011;27858;51.414;0.018;2023-02-05T03:00:17;3.30;;;2.10;;
42186;SDS011;27858;51.414;0.018;2023-02-05T03:05:19;5.75;;;2.83;;
42186;SDS011;27858;51.414;0.018;2023-02-05T03:07:53;3.78;;;2.05;;
42186;SDS011;27858;51.414;0.018;2023-02-05T03:10:31;5.07;;;1.90;;
42186;SDS011;27858;51.414;0.018;2023-02-05T03:13:07;5.10;;;1.60;;
42186;SDS011;27858;51.414;0.018;2023-02-05T03:15:36;5.80;;;2.35;;
42186;SDS011;27858;51.414;0.018;2023-02-05T03:18:05;5.78;;;1.88;;
42186;SDS011;27858;51.414;0.018;2023-02-05T03:20:37;1.83;;;1.23;;
42186;SDS011;27858;51.414;0.018;2023-02-05T03:23:10;3.47;;;1.70;;
42186;SDS011;27858;51.414;0.018;2023-02-05T03:25:40;4.40;;;1.65;;
42186;SDS011;27858;51.414;0.018;2023-02-05T03:28:07;5.07;;;2.00;;
42186;SDS011;27858;51.414;0.018;2023-02-05T03:30:38;2.85;;;1.38;;
42186;SDS011;27858;51.414;0.018;2023-02-05T03:33:21;2.33;;;1.20;;
42186;SDS011;27858;51.414;0.018;2023-02-05T03:38:47;6.00;;;1.70;;
42186;SDS011;27858;51.414;0.018;2023-02-05T03:47:10;4.30;;;1.25;;
42186;SDS011;27858;51.414;0.018;2023-02-05T03:52:49;4.18;;;1.50;;
42186;SDS011;27858;51.414;0.018;2023-02-05T03:55:21;1.50;;;1.00;;
42186;SDS011;27858;51.414;0.018;2023-02-05T03:58:05;3.55;;;1.40;;
42186;SDS011;27858;51.414;0.018;2023-02-05T04:00:48;1.30;;;1.20;;
42186;SDS011;27858;51.414;0.018;2023-02-05T04:03:15;4.95;;;1.38;;
42186;SDS011;27858;51.414;0.018;2023-02-05T04:05:42;5.05;;;1.67;;
42186;SDS011;27858;51.414;0.018;2023-02-05T04:08:10;3.33;;;0.80;;
42186;SDS011;27858;51.414;0.018;2023-02-05T04:10:36;4.75;;;1.02;;
42186;SDS011;27858;51.414;0.018;2023-02-05T04:13:03;1.80;;;0.90;;
42186;SDS011;27858;51.414;0.018;2023-02-05T04:15:30;2.22;;;1.05;;
42186;SDS011;27858;51.414;0.018;2023-02-05T04:17:57;2.20;;;0.60;;
42186;SDS011;27858;51.414;0.018;2023-02-05T04:20:23;4.63;;;1.27;;
42186;SDS011;27858;51.414;0.018;2023-02-05T04:22:50;1.67;;;0.88;;
42186;SDS011;27858;51.414;0.018;2023-02-05T04:25:17;3.25;;;1.30;;
42186;SDS011;27858;51.414;0.018;2023-02-05T04:27:45;4.03;;;0.60;;
42186;SDS011;27858;51.414;0.018;2023-02-05T04:30:12;3.97;;;1.23;;
42186;SDS011;27858;51.414;0.018;2023-02-05T04:32:39;2.40;;;1.30;;
42186;SDS011;27858;51.414;0.018;2023-02-05T04:35:06;5.13;;;0.95;;
42186;SDS011;27858;51.414;0.018;2023-02-05T04:37:33;3.97;;;0.80;;
42186;SDS011;27858;51.414;0.018;2023-02-05T04:40:00;2.70;;;0.70;;
42186;SDS011;27858;51.414;0.018;2023-02-05T04:42:26;1.90;;;0.50;;
42186;SDS011;27858;51.414;0.018;2023-02-05T04:44:53;11.10;;;2.17;;
42186;SDS011;27858;51.414;0.018;2023-02-05T04:47:21;3.75;;;0.77;;
42186;SDS011;27858;51.414;0.018;2023-02-05T04:49:47;2.63;;;1.35;;
42186;SDS011;27858;51.414;0.018;2023-02-05T04:52:14;3.60;;;0.68;;
42186;SDS011;27858;51.414;0.018;2023-02-05T04:54:41;2.30;;;0.68;;
42186;SDS011;27858;51.414;0.018;2023-02-05T04:57:08;2.17;;;0.73;;
42186;SDS011;27858;51.414;0.018;2023-02-05T04:59:35;6.72;;;1.95;;
42186;SDS011;27858;51.414;0.018;2023-02-05T05:02:02;8.45;;;1.33;;
42186;SDS011;27858;51.414;0.018;2023-02-05T05:04:29;5.38;;;0.82;;
42186;SDS011;27858;51.414;0.018;2023-02-05T05:06:56;1.33;;;0.90;;
42186;SDS011;27858;51.414;0.018;2023-02-05T05:09:22;13.38;;;1.42;;
42186;SDS011;27858;51.414;0.018;2023-02-05T05:11:50;9.35;;;1.95;;
42186;SDS011;27858;51.414;0.018;2023-02-05T05:14:18;5.93;;;1.27;;
42186;SDS011;27858;51.414;0.018;2023-02-05T05:16:45;7.07;;;0.75;;
42186;SDS011;27858;51.414;0.018;2023-02-05T05:19:14;4.40;;;0.70;;
42186;SDS011;27858;51.414;0.018;2023-02-05T05:21:41;2.30;;;1.45;;
42186;SDS011;27858;51.414;0.018;2023-02-05T05:24:08;3.60;;;0.98;;
42186;SDS011;27858;51.414;0.018;2023-02-05T05:26:35;2.78;;;1.00;;
42186;SDS011;27858;51.414;0.018;2023-02-05T05:29:04;2.28;;;0.63;;
42186;SDS011;27858;51.414;0.018;2023-02-05T05:31:31;5.30;;;0.70;;
42186;SDS011;27858;51.414;0.018;2023-02-05T05:33:58;3.25;;;1.17;;
42186;SDS011;27858;51.414;0.018;2023-02-05T05:36:24;9.95;;;2.05;;
42186;SDS011;27858;51.414;0.018;2023-02-05T05:38:52;6.55;;;1.23;;
42186;SDS011;27858;51.414;0.018;2023-02-05T05:41:22;4.22;;;1.52;;
42186;SDS011;27858;51.414;0.018;2023-02-05T05:44:08;3.15;;;1.00;;
42186;SDS011;27858;51.414;0.018;2023-02-05T05:46:35;11.40;;;2.50;;
42186;SDS011;27858;51.414;0.018;2023-02-05T05:49:02;2.47;;;1.10;;
42186;SDS011;27858;51.414;0.018;2023-02-05T05:51:29;4.13;;;1.35;;
42186;SDS011;27858;51.414;0.018;2023-02-05T05:53:57;4.25;;;0.90;;
42186;SDS011;27858;51.414;0.018;2023-02-05T05:56:24;3.33;;;1.65;;
42186;SDS011;27858;51.414;0.018;2023-02-05T05:58:51;2.63;;;1.38;;
42186;SDS011;27858;51.414;0.018;2023-02-05T06:01:18;4.53;;;1.15;;
42186;SDS011;27858;51.414;0.018;2023-02-05T06:03:47;7.55;;;1.00;;
42186;SDS011;27858;51.414;0.018;2023-02-05T06:06:14;6.35;;;1.10;;
42186;SDS011;27858;51.414;0.018;2023-02-05T06:08:42;3.83;;;1.00;;
42186;SDS011;27858;51.414;0.018;2023-02-05T06:11:08;3.53;;;1.00;;
42186;SDS011;27858;51.414;0.018;2023-02-05T06:13:35;4.50;;;1.00;;
42186;SDS011;27858;51.414;0.018;2023-02-05T06:16:02;5.00;;;1.70;;
42186;SDS011;27858;51.414;0.018;2023-02-05T06:18:30;4.82;;;1.02;;
42186;SDS011;27858;51.414;0.018;2023-02-05T06:20:57;1.35;;;0.75;;
42186;SDS011;27858;51.414;0.018;2023-02-05T06:23:23;7.53;;;1.52;;
42186;SDS011;27858;51.414;0.018;2023-02-05T06:25:50;6.65;;;1.50;;
42186;SDS011;27858;51.414;0.018;2023-02-05T06:28:17;7.07;;;2.42;;
42186;SDS011;27858;51.414;0.018;2023-02-05T06:30:44;3.30;;;0.80;;
42186;SDS011;27858;51.414;0.018;2023-02-05T06:33:12;3.30;;;1.60;;
42186;SDS011;27858;51.414;0.018;2023-02-05T06:35:39;3.42;;;1.42;;
42186;SDS011;27858;51.414;0.018;2023-02-05T06:38:06;8.23;;;1.88;;
42186;SDS011;27858;51.414;0.018;2023-02-05T06:40:34;6.47;;;0.93;;
42186;SDS011;27858;51.414;0.018;2023-02-05T06:43:00;3.58;;;1.83;;
42186;SDS011;27858;51.414;0.018;2023-02-05T06:45:28;4.65;;;1.67;;
42186;SDS011;27858;51.414;0.018;2023-02-05T06:47:55;6.10;;;1.35;;
42186;SDS011;27858;51.414;0.018;2023-02-05T06:50:22;3.85;;;1.17;;
42186;SDS011;27858;51.414;0.018;2023-02-05T06:52:49;4.00;;;1.38;;
42186;SDS011;27858;51.414;0.018;2023-02-05T06:55:16;6.32;;;1.65;;
42186;SDS011;27858;51.414;0.018;2023-02-05T06:57:44;4.35;;;1.83;;
42186;SDS011;27858;51.414;0.018;2023-02-05T07:00:11;3.63;;;1.05;;
42186;SDS011;27858;51.414;0.018;2023-02-05T07:02:38;6.75;;;0.85;;
42186;SDS011;27858;51.414;0.018;2023-02-05T07:05:06;4.47;;;1.05;;
42186;SDS011;27858;51.414;0.018;2023-02-05T07:07:33;4.38;;;1.65;;
42186;SDS011;27858;51.414;0.018;2023-02-05T07:10:00;5.60;;;1.67;;
42186;SDS011;27858;51.414;0.018;2023-02-05T07:12:28;5.00;;;1.08;;
42186;SDS011;27858;51.414;0.018;2023-02-05T07:14:56;14.95;;;2.90;;
42186;SDS011;27858;51.414;0.018;2023-02-05T07:17:22;3.67;;;0.80;;
42186;SDS011;27858;51.414;0.018;2023-02-05T07:19:49;5.90;;;1.48;;
42186;SDS011;27858;51.414;0.018;2023-02-05T07:22:16;3.30;;;1.65;;
42186;SDS011;27858;51.414;0.018;2023-02-05T07:24:43;8.43;;;2.25;;
42186;SDS011;27858;51.414;0.018;2023-02-05T07:27:09;9.48;;;1.25;;
42186;SDS011;27858;51.414;0.018;2023-02-05T07:29:36;4.20;;;0.90;;
42186;SDS011;27858;51.414;0.018;2023-02-05T07:32:03;4.72;;;1.48;;
42186;SDS011;27858;51.414;0.018;2023-02-05T07:34:31;13.77;;;1.52;;
42186;SDS011;27858;51.414;0.018;2023-02-05T07:36:58;2.17;;;0.85;;
42186;SDS011;27858;51.414;0.018;2023-02-05T07:39:25;4.78;;;0.82;;
42186;SDS011;27858;51.414;0.018;2023-02-05T07:41:53;6.07;;;1.27;;
42186;SDS011;27858;51.414;0.018;2023-02-05T07:44:20;8.55;;;1.15;;
42186;SDS011;27858;51.414;0.018;2023-02-05T07:46:47;3.13;;;0.82;;
42186;SDS011;27858;51.414;0.018;2023-02-05T07:49:14;10.32;;;2.08;;
42186;SDS011;27858;51.414;0.018;2023-02-05T07:51:41;7.13;;;1.80;;
42186;SDS011;27858;51.414;0.018;2023-02-05T07:54:08;5.05;;;1.33;;
42186;SDS011;27858;51.414;0.018;2023-02-05T07:56:36;4.07;;;1.10;;
42186;SDS011;27858;51.414;0.018;2023-02-05T07:59:02;9.13;;;1.08;;
42186;SDS011;27858;51.414;0.018;2023-02-05T08:01:29;4.22;;;2.00;;
42186;SDS011;27858;51.414;0.018;2023-02-05T08:03:57;4.18;;;1.15;;
42186;SDS011;27858;51.414;0.018;2023-02-05T08:06:23;5.15;;;1.20;;
42186;SDS011;27858;51.414;0.018;2023-02-05T08:08:51;4.93;;;1.48;;
42186;SDS011;27858;51.414;0.018;2023-02-05T08:11:18;3.17;;;0.70;;
42186;SDS011;27858;51.414;0.018;2023-02-05T08:13:45;5.28;;;0.90;;
42186;SDS011;27858;51.414;0.018;2023-02-05T08:16:16;2.53;;;1.17;;
42186;SDS011;27858;51.414;0.018;2023-02-05T08:18:47;5.53;;;1.83;;
42186;SDS011;27858;51.414;0.018;2023-02-05T08:21:15;4.50;;;1.55;;
42186;SDS011;27858;51.414;0.018;2023-02-05T08:23:43;2.45;;;1.15;;
42186;SDS011;27858;51.414;0.018;2023-02-05T08:26:10;4.13;;;1.35;;
42186;SDS011;27858;51.414;0.018;2023-02-05T08:28:37;13.85;;;2.00;;
42186;SDS011;27858;51.414;0.018;2023-02-05T08:31:11;5.32;;;1.73;;
42186;SDS011;27858;51.414;0.018;2023-02-05T08:33:42;4.50;;;1.40;;
42186;SDS011;27858;51.414;0.018;2023-02-05T08:36:09;8.32;;;1.60;;
42186;SDS011;27858;51.414;0.018;2023-02-05T08:38:36;7.00;;;1.30;;
42186;SDS011;27858;51.414;0.018;2023-02-05T08:41:07;7.68;;;2.30;;
42186;SDS011;27858;51.414;0.018;2023-02-05T08:43:43;7.40;;;2.63;;
42186;SDS011;27858;51.414;0.018;2023-02-05T08:46:12;6.22;;;1.65;;
42186;SDS011;27858;51.414;0.018;2023-02-05T08:48:39;12.45;;;1.70;;
42186;SDS011;27858;51.414;0.018;2023-02-05T08:51:10;6.60;;;2.08;;
42186;SDS011;27858;51.414;0.018;2023-02-05T08:53:41;6.18;;;1.35;;
42186;SDS011;27858;51.414;0.018;2023-02-05T08:56:08;5.70;;;1.25;;
42186;SDS011;27858;51.414;0.018;2023-02-05T08:58:36;8.80;;;1.65;;
42186;SDS011;27858;51.414;0.018;2023-02-05T09:01:05;8.52;;;3.08;;
42186;SDS011;27858;51.414;0.018;2023-02-05T09:03:37;5.75;;;1.60;;
42186;SDS011;27858;51.414;0.018;2023-02-05T09:06:08;5.57;;;1.55;;
42186;SDS011;27858;51.414;0.018;2023-02-05T09:08:42;10.43;;;1.63;;
42186;SDS011;27858;51.414;0.018;2023-02-05T09:11:09;3.67;;;2.15;;
42186;SDS011;27858;51.414;0.018;2023-02-05T09:13:38;10.85;;;1.95;;
42186;SDS011;27858;51.414;0.018;2023-02-05T09:16:08;10.27;;;1.60;;
42186;SDS011;27858;51.414;0.018;2023-02-05T09:18:35;17.88;;;2.47;;
42186;SDS011;27858;51.414;0.018;2023-02-05T09:21:05;13.18;;;2.00;;
42186;SDS011;27858;51.414;0.018;2023-02-05T09:23:33;8.10;;;2.20;;
42186;SDS011;27858;51.414;0.018;2023-02-05T09:25:59;12.25;;;1.80;;
42186;SDS011;27858;51.414;0.018;2023-02-05T09:28:26;5.45;;;2.60;;
42186;SDS011;27858;51.414;0.018;2023-02-05T09:30:53;6.25;;;2.05;;
42186;SDS011;27858;51.414;0.018;2023-02-05T09:33:20;7.82;;;1.42;;
42186;SDS011;27858;51.414;0.018;2023-02-05T09:35:47;17.42;;;2.50;;
42186;SDS011;27858;51.414;0.018;2023-02-05T09:38:14;3.65;;;1.38;;
42186;SDS011;27858;51.414;0.018;2023-02-05T09:46:28;10.07;;;2.80;;
42186;SDS011;27858;51.414;0.018;2023-02-05T09:49:06;15.60;;;2.28;;
42186;SDS011;27858;51.414;0.018;2023-02-05T09:51:39;7.80;;;2.28;;
42186;SDS011;27858;51.414;0.018;2023-02-05T09:54:15;7.78;;;2.17;;
42186;SDS011;27858;51.414;0.018;2023-02-05T09:56:47;7.00;;;2.35;;
42186;SDS011;27858;51.414;0.018;2023-02-05T09:59:18;8.57;;;2.10;;
42186;SDS011;27858;51.414;0.018;2023-02-05T10:01:55;5.30;;;1.30;;
42186;SDS011;27858;51.414;0.018;2023-02-05T10:24:22;6.00;;;2.08;;
42186;SDS011;27858;51.414;0.018;2023-02-05T10:27:23;5.63;;;1.42;;
42186;SDS011;27858;51.414;0.018;2023-02-05T10:38:09;11.63;;;5.78;;
42186;SDS011;27858;51.414;0.018;2023-02-05T10:40:42;17.45;;;4.68;;
42186;SDS011;27858;51.414;0.018;2023-02-05T10:45:52;9.82;;;2.70;;
42186;SDS011;27858;51.414;0.018;2023-02-05T10:50:56;15.75;;;4.32;;
42186;SDS011;27858;51.414;0.018;2023-02-05T10:53:31;6.18;;;2.15;;
42186;SDS011;27858;51.414;0.018;2023-02-05T10:55:58;5.60;;;2.08;;
42186;SDS011;27858;51.414;0.018;2023-02-05T11:01:19;5.38;;;3.10;;
42186;SDS011;27858;51.414;0.018;2023-02-05T11:06:48;8.32;;;4.10;;
42186;SDS011;27858;51.414;0.018;2023-02-05T11:11:51;14.13;;;4.47;;
42186;SDS011;27858;51.414;0.018;2023-02-05T11:17:06;16.35;;;3.63;;
42186;SDS011;27858;51.414;0.018;2023-02-05T11:19:55;12.70;;;4.55;;
42186;SDS011;27858;51.414;0.018;2023-02-05T11:22:33;10.90;;;3.67;;
42186;SDS011;27858;51.414;0.018;2023-02-05T11:25:20;17.45;;;4.15;;
42186;SDS011;27858;51.414;0.018;2023-02-05T11:27:53;4.22;;;1.92;;
42186;SDS011;27858;51.414;0.018;2023-02-05T11:30:25;11.50;;;3.78;;
42186;SDS011;27858;51.414;0.018;2023-02-05T11:33:17;8.77;;;2.80;;
42186;SDS011;27858;51.414;0.018;2023-02-05T11:36:01;17.58;;;4.93;;
42186;SDS011;27858;51.414;0.018;2023-02-05T11:38:34;21.55;;;6.07;;
42186;SDS011;27858;51.414;0.018;2023-02-05T11:41:07;20.73;;;9.77;;
42186;SDS011;27858;51.414;0.018;2023-02-05T11:43:40;13.18;;;7.90;;
42186;SDS011;27858;51.414;0.018;2023-02-05T11:46:15;13.55;;;3.33;;
42186;SDS011;27858;51.414;0.018;2023-02-05T11:48:48;11.50;;;4.28;;
42186;SDS011;27858;51.414;0.018;2023-02-05T11:51:26;16.50;;;2.83;;
42186;SDS011;27858;51.414;0.018;2023-02-05T11:54:02;6.93;;;2.80;;
42186;SDS011;27858;51.414;0.018;2023-02-05T11:56:36;9.32;;;3.33;;
42186;SDS011;27858;51.414;0.018;2023-02-05T11:59:05;16.50;;;6.32;;
42186;SDS011;27858;51.414;0.018;2023-02-05T12:01:43;9.55;;;5.45;;
42186;SDS011;27858;51.414;0.018;2023-02-05T12:09:26;13.23;;;2.05;;
42186;SDS011;27858;51.414;0.018;2023-02-05T12:22:55;9.37;;;2.20;;
42186;SDS011;27858;51.414;0.018;2023-02-05T12:36:14;6.30;;;1.58;;
42186;SDS011;27858;51.414;0.018;2023-02-05T12:39:24;5.55;;;1.58;;
42186;SDS011;27858;51.414;0.018;2023-02-05T12:42:17;8.55;;;1.73;;
42186;SDS011;27858;51.414;0.018;2023-02-05T12:45:01;14.95;;;2.63;;
42186;SDS011;27858;51.414;0.018;2023-02-05T12:50:36;13.15;;;2.58;;
42186;SDS011;27858;51.414;0.018;2023-02-05T12:56:14;5.25;;;2.03;;
42186;SDS011;27858;51.414;0.018;2023-02-05T12:58:45;12.93;;;2.15;;
42186;SDS011;27858;51.414;0.018;2023-02-05T13:01:23;4.95;;;1.55;;
42186;SDS011;27858;51.414;0.018;2023-02-05T13:04:04;12.07;;;2.28;;
42186;SDS011;27858;51.414;0.018;2023-02-05T13:12:02;11.13;;;2.88;;
42186;SDS011;27858;51.414;0.018;2023-02-05T13:14:35;13.45;;;2.60;;
42186;SDS011;27858;51.414;0.018;2023-02-05T13:17:18;13.90;;;4.03;;
42186;SDS011;27858;51.414;0.018;2023-02-05T13:19:50;11.27;;;2.35;;
42186;SDS011;27858;51.414;0.018;2023-02-05T13:28:16;10.48;;;1.88;;
42186;SDS011;27858;51.414;0.018;2023-02-05T13:33:54;7.78;;;2.13;;
42186;SDS011;27858;51.414;0.018;2023-02-05T13:53:17;6.57;;;2.35;;
42186;SDS011;27858;51.414;0.018;2023-02-05T13:58:27;7.68;;;1.40;;
42186;SDS011;27858;51.414;0.018;2023-02-05T14:01:06;5.95;;;1.27;;
42186;SDS011;27858;51.414;0.018;2023-02-05T14:04:37;7.20;;;2.30;;
42186;SDS011;27858;51.414;0.018;2023-02-05T14:06:57;5.45;;;1.88;;
42186;SDS011;27858;51.414;0.018;2023-02-05T14:09:32;5.40;;;1.65;;
42186;SDS011;27858;51.414;0.018;2023-02-05T14:12:05;9.15;;;1.55;;
42186;SDS011;27858;51.414;0.018;2023-02-05T14:14:35;8.75;;;2.28;;
42186;SDS011;27858;51.414;0.018;2023-02-05T14:22:52;5.53;;;2.25;;
42186;SDS011;27858;51.414;0.018;2023-02-05T14:30:45;4.72;;;1.55;;
42186;SDS011;27858;51.414;0.018;2023-02-05T14:33:59;10.45;;;2.78;;
42186;SDS011;27858;51.414;0.018;2023-02-05T14:38:43;13.40;;;3.53;;
42186;SDS011;27858;51.414;0.018;2023-02-05T14:41:17;24.58;;;6.10;;
42186;SDS011;27858;51.414;0.018;2023-02-05T14:43:56;7.22;;;2.25;;
42186;SDS011;27858;51.414;0.018;2023-02-05T14:49:21;10.02;;;4.85;;
42186;SDS011;27858;51.414;0.018;2023-02-05T14:51:52;16.70;;;4.35;;
42186;SDS011;27858;51.414;0.018;2023-02-05T14:54:33;10.43;;;3.13;;
42186;SDS011;27858;51.414;0.018;2023-02-05T14:57:19;8.15;;;2.53;;
42186;SDS011;27858;51.414;0.018;2023-02-05T14:59:50;9.57;;;2.80;;
42186;SDS011;27858;51.414;0.018;2023-02-05T15:05:20;11.63;;;2.58;;
42186;SDS011;27858;51.414;0.018;2023-02-05T15:08:41;9.55;;;2.38;;
42186;SDS011;27858;51.414;0.018;2023-02-05T15:13:38;6.57;;;2.00;;
42186;SDS011;27858;51.414;0.018;2023-02-05T15:16:06;5.45;;;1.30;;
42186;SDS011;27858;51.414;0.018;2023-02-05T15:18:43;7.27;;;2.70;;
42186;SDS011;27858;51.414;0.018;2023-02-05T15:21:21;26.05;;;4.05;;
42186;SDS011;27858;51.414;0.018;2023-02-05T15:23:55;4.35;;;1.75;;
42186;SDS011;27858;51.414;0.018;2023-02-05T15:26:33;6.72;;;1.60;;
42186;SDS011;27858;51.414;0.018;2023-02-05T15:29:11;6.45;;;2.05;;
42186;SDS011;27858;51.414;0.018;2023-02-05T15:31:44;14.80;;;2.10;;
42186;SDS011;27858;51.414;0.018;2023-02-05T15:37:05;15.40;;;5.43;;
42186;SDS011;27858;51.414;0.018;2023-02-05T15:42:29;10.88;;;4.18;;
42186;SDS011;27858;51.414;0.018;2023-02-05T15:45:15;8.50;;;3.05;;
42186;SDS011;27858;51.414;0.018;2023-02-05T15:48:02;7.35;;;2.53;;
42186;SDS011;27858;51.414;0.018;2023-02-05T15:50:56;14.15;;;3.63;;
42186;SDS011;27858;51.414;0.018;2023-02-05T15:56:42;3.42;;;1.80;;
42186;SDS011;27858;51.414;0.018;2023-02-05T15:58:51;10.15;;;2.15;;
42186;SDS011;27858;51.414;0.018;2023-02-05T16:01:24;5.30;;;2.35;;
42186;SDS011;27858;51.414;0.018;2023-02-05T16:03:52;12.23;;;2.38;;
42186;SDS011;27858;51.414;0.018;2023-02-05T16:06:22;25.63;;;3.75;;
42186;SDS011;27858;51.414;0.018;2023-02-05T16:08:51;5.75;;;2.20;;
42186;SDS011;27858;51.414;0.018;2023-02-05T16:11:29;9.90;;;2.38;;
42186;SDS011;27858;51.414;0.018;2023-02-05T16:14:32;11.95;;;4.15;;
42186;SDS011;27858;51.414;0.018;2023-02-05T16:16:58;13.18;;;3.47;;
42186;SDS011;27858;51.414;0.018;2023-02-05T16:22:22;16.77;;;4.97;;
42186;SDS011;27858;51.414;0.018;2023-02-05T16:25:25;7.00;;;1.60;;
42186;SDS011;27858;51.414;0.018;2023-02-05T16:28:04;14.65;;;3.70;;
42186;SDS011;27858;51.414;0.018;2023-02-05T16:30:38;6.95;;;2.25;;
42186;SDS011;27858;51.414;0.018;2023-02-05T16:33:25;5.40;;;2.75;;
42186;SDS011;27858;51.414;0.018;2023-02-05T16:35:54;10.68;;;2.30;;
42186;SDS011;27858;51.414;0.018;2023-02-05T16:38:23;17.20;;;3.65;;
42186;SDS011;27858;51.414;0.018;2023-02-05T16:40:52;7.53;;;2.50;;
42186;SDS011;27858;51.414;0.018;2023-02-05T16:53:57;10.57;;;2.30;;
42186;SDS011;27858;51.414;0.018;2023-02-05T16:56:37;13.73;;;2.67;;
42186;SDS011;27858;51.414;0.018;2023-02-05T16:59:13;6.07;;;1.60;;
42186;SDS011;27858;51.414;0.018;2023-02-05T17:01:44;6.88;;;1.73;;
42186;SDS011;27858;51.414;0.018;2023-02-05T17:04:21;11.02;;;2.35;;
42186;SDS011;27858;51.414;0.018;2023-02-05T17:06:53;10.05;;;2.40;;
42186;SDS011;27858;51.414;0.018;2023-02-05T17:09:32;9.25;;;3.03;;
42186;SDS011;27858;51.414;0.018;2023-02-05T17:14:57;11.73;;;2.95;;
42186;SDS011;27858;51.414;0.018;2023-02-05T17:17:25;7.57;;;3.25;;
42186;SDS011;27858;51.414;0.018;2023-02-05T17:22:32;24.88;;;4.30;;
42186;SDS011;27858;51.414;0.018;2023-02-05T17:25:00;9.60;;;2.78;;
42186;SDS011;27858;51.414;0.018;2023-02-05T17:27:28;10.43;;;2.88;;
42186;SDS011;27858;51.414;0.018;2023-02-05T17:30:03;15.98;;;4.05;;
42186;SDS011;27858;51.414;0.018;2023-02-05T17:32:31;6.68;;;2.13;;
42186;SDS011;27858;51.414;0.018;2023-02-05T17:34:58;10.27;;;3.65;;
42186;SDS011;27858;51.414;0.018;2023-02-05T17:37:25;9.40;;;3.50;;
42186;SDS011;27858;51.414;0.018;2023-02-05T17:39:52;11.20;;;3.50;;
42186;SDS011;27858;51.414;0.018;2023-02-05T17:42:22;16.67;;;4.70;;
42186;SDS011;27858;51.414;0.018;2023-02-05T17:44:50;20.45;;;3.97;;
42186;SDS011;27858;51.414;0.018;2023-02-05T17:47:18;18.35;;;4.82;;
42186;SDS011;27858;51.414;0.018;2023-02-05T17:49:45;18.23;;;5.05;;
42186;SDS011;27858;51.414;0.018;2023-02-05T17:52:13;13.60;;;4.03;;
42186;SDS011;27858;51.414;0.018;2023-02-05T17:54:42;7.05;;;3.60;;
42186;SDS011;27858;51.414;0.018;2023-02-05T17:57:14;13.68;;;3.53;;
42186;SDS011;27858;51.414;0.018;2023-02-05T17:59:42;14.32;;;3.75;;
42186;SDS011;27858;51.414;0.018;2023-02-05T18:02:10;13.98;;;3.78;;
42186;SDS011;27858;51.414;0.018;2023-02-05T18:04:38;30.50;;;4.53;;
42186;SDS011;27858;51.414;0.018;2023-02-05T18:07:09;22.40;;;4.57;;
42186;SDS011;27858;51.414;0.018;2023-02-05T18:09:45;12.32;;;4.18;;
42186;SDS011;27858;51.414;0.018;2023-02-05T18:12:12;18.10;;;4.55;;
42186;SDS011;27858;51.414;0.018;2023-02-05T18:14:38;14.48;;;4.95;;
42186;SDS011;27858;51.414;0.018;2023-02-05T18:17:05;19.80;;;5.13;;
42186;SDS011;27858;51.414;0.018;2023-02-05T18:19:32;14.98;;;4.47;;
42186;SDS011;27858;51.414;0.018;2023-02-05T18:22:00;12.82;;;4.40;;
42186;SDS011;27858;51.414;0.018;2023-02-05T18:24:27;20.38;;;6.38;;